createdAt,value
2023-05-03T00:00:18.719Z,2.40
2023-05-03T00:01:41.232Z,2.60
2023-05-03T00:03:06.691Z,2.87
2023-05-03T00:04:28.846Z,2.40
2023-05-03T00:05:50.893Z,3.00
2023-05-03T00:07:12.958Z,2.70
2023-05-03T00:08:34.992Z,2.47
2023-05-03T00:09:57.258Z,2.60
2023-05-03T00:11:19.295Z,2.97
2023-05-03T00:12:42.574Z,2.90
2023-05-03T00:14:04.747Z,3.73
2023-05-03T00:15:26.915Z,2.97
2023-05-03T00:16:49.023Z,2.23
2023-05-03T00:18:11.347Z,2.80
2023-05-03T00:19:34.071Z,2.67
2023-05-03T00:20:56.978Z,3.20
2023-05-03T00:22:19.024Z,2.97
2023-05-03T00:23:41.315Z,3.07
2023-05-03T00:25:04.714Z,2.83
2023-05-03T00:26:28.233Z,2.40
2023-05-03T00:27:50.293Z,2.50
2023-05-03T00:29:12.393Z,2.60
2023-05-03T00:30:34.490Z,2.60
2023-05-03T00:31:56.605Z,2.70
2023-05-03T00:33:18.834Z,2.23
2023-05-03T00:34:40.976Z,3.20
2023-05-03T00:36:10.507Z,2.73
2023-05-03T00:37:32.642Z,3.50
2023-05-03T00:38:55.033Z,2.63
2023-05-03T00:40:18.666Z,2.73
2023-05-03T00:41:41.564Z,3.33
2023-05-03T00:43:03.664Z,3.13
2023-05-03T00:44:25.982Z,2.50
2023-05-03T00:45:48.111Z,3.20
2023-05-03T00:47:10.661Z,2.10
2023-05-03T00:48:34.200Z,3.30
2023-05-03T00:49:56.428Z,2.93
2023-05-03T00:51:20.676Z,2.80
2023-05-03T00:52:43.018Z,2.80
2023-05-03T00:54:05.787Z,3.03
2023-05-03T00:55:31.572Z,3.03
2023-05-03T00:56:53.858Z,2.90
2023-05-03T00:58:16.401Z,2.93
2023-05-03T00:59:38.422Z,3.17
2023-05-03T01:01:00.780Z,2.60
2023-05-03T01:02:22.911Z,3.03
2023-05-03T01:03:46.483Z,2.63
2023-05-03T01:05:09.143Z,3.00
2023-05-03T01:06:52.842Z,2.80
2023-05-03T01:08:45.634Z,3.00
2023-05-03T01:10:27.860Z,2.90
2023-05-03T01:12:04.548Z,3.07
2023-05-03T01:13:42.633Z,2.63
2023-05-03T01:15:16.156Z,3.00
2023-05-03T01:16:54.448Z,2.67
2023-05-03T01:18:23.593Z,3.33
2023-05-03T01:19:54.201Z,3.17
2023-05-03T01:21:22.692Z,3.20
2023-05-03T01:22:59.139Z,2.70
2023-05-03T01:24:24.125Z,2.80
2023-05-03T01:25:46.125Z,2.80
2023-05-03T01:27:09.445Z,4.60
2023-05-03T01:28:31.516Z,3.13
2023-05-03T01:29:53.621Z,2.33
2023-05-03T01:31:38.644Z,2.70
2023-05-03T01:33:16.093Z,3.10
2023-05-03T01:34:46.895Z,2.80
2023-05-03T01:36:15.602Z,3.50
2023-05-03T01:37:39.452Z,2.70
2023-05-03T01:39:09.866Z,3.30
2023-05-03T01:40:36.458Z,3.10
2023-05-03T01:41:59.273Z,3.20
2023-05-03T01:43:22.570Z,3.50
2023-05-03T01:44:45.658Z,3.00
2023-05-03T01:46:08.260Z,2.90
2023-05-03T01:47:30.901Z,2.77
2023-05-03T01:48:52.956Z,3.03
2023-05-03T01:50:15.309Z,3.77
2023-05-03T01:51:37.487Z,3.17
2023-05-03T01:52:59.521Z,3.47
2023-05-03T01:54:22.284Z,3.90
2023-05-03T01:55:44.454Z,3.30
2023-05-03T01:57:06.619Z,3.90
2023-05-03T01:58:28.674Z,3.00
2023-05-03T01:59:50.788Z,2.90
2023-05-03T02:01:12.928Z,3.40
2023-05-03T02:02:35.056Z,3.40
2023-05-03T02:03:57.150Z,3.07
2023-05-03T02:05:19.347Z,3.23
2023-05-03T02:06:41.424Z,2.77
2023-05-03T02:08:03.647Z,3.37
2023-05-03T02:09:25.800Z,3.23
2023-05-03T02:10:47.850Z,4.10
2023-05-03T02:12:11.395Z,3.20
2023-05-03T02:13:33.452Z,3.13
2023-05-03T02:14:55.558Z,3.50
2023-05-03T02:16:18.690Z,3.67
2023-05-03T02:17:42.252Z,3.30
2023-05-03T02:19:05.406Z,3.50
2023-05-03T02:20:27.454Z,3.23
2023-05-03T02:21:49.536Z,3.50
2023-05-03T02:23:11.601Z,3.20
2023-05-03T02:24:36.164Z,3.60
2023-05-03T02:25:58.269Z,3.80
2023-05-03T02:27:20.297Z,3.73
2023-05-03T02:28:42.365Z,3.50
2023-05-03T02:30:05.169Z,3.60
2023-05-03T02:31:27.664Z,3.37
2023-05-03T02:32:49.870Z,3.70
2023-05-03T02:34:12.077Z,3.73
2023-05-03T02:35:34.170Z,3.73
2023-05-03T02:36:56.285Z,3.63
2023-05-03T02:38:18.368Z,3.40
2023-05-03T02:39:40.521Z,3.03
2023-05-03T02:41:02.660Z,3.60
2023-05-03T02:42:24.702Z,3.70
2023-05-03T02:43:46.737Z,4.40
2023-05-03T02:45:09.147Z,4.37
2023-05-03T02:46:31.305Z,3.20
2023-05-03T02:47:53.481Z,4.40
2023-05-03T02:49:15.602Z,3.30
2023-05-03T02:50:38.560Z,3.53
2023-05-03T02:52:00.638Z,3.97
2023-05-03T02:53:22.997Z,3.33
2023-05-03T02:54:47.217Z,4.17
2023-05-03T02:56:09.825Z,3.87
2023-05-03T02:57:31.882Z,3.70
2023-05-03T02:58:54.870Z,3.13
2023-05-03T03:00:17.689Z,3.40
2023-05-03T03:01:39.756Z,3.47
2023-05-03T03:03:02.047Z,3.87
2023-05-03T03:04:26.248Z,3.40
2023-05-03T03:05:48.391Z,3.70
2023-05-03T03:07:10.629Z,3.67
2023-05-03T03:08:32.639Z,3.80
2023-05-03T03:09:54.705Z,3.50
2023-05-03T03:11:17.224Z,3.53
2023-05-03T03:12:39.494Z,4.00
2023-05-03T03:14:01.697Z,4.20
2023-05-03T03:15:23.782Z,3.23
2023-05-03T03:16:46.134Z,4.00
2023-05-03T03:18:08.280Z,4.07
2023-05-03T03:19:30.734Z,3.27
2023-05-03T03:20:52.813Z,3.83
2023-05-03T03:22:14.817Z,3.67
2023-05-03T03:23:36.883Z,4.00
2023-05-03T03:24:58.903Z,3.07
2023-05-03T03:26:21.178Z,4.30
2023-05-03T03:27:43.196Z,3.30
2023-05-03T03:29:05.283Z,3.43
2023-05-03T03:30:27.375Z,4.00
2023-05-03T03:31:49.383Z,3.03
2023-05-03T03:33:11.722Z,3.30
2023-05-03T03:34:34.068Z,3.60
2023-05-03T03:35:56.154Z,4.27
2023-05-03T03:37:18.399Z,3.37
2023-05-03T03:38:41.204Z,3.20
2023-05-03T03:40:03.905Z,3.83
2023-05-03T03:41:26.221Z,3.90
2023-05-03T03:42:48.251Z,3.57
2023-05-03T03:44:10.305Z,3.53
2023-05-03T03:45:32.361Z,3.37
2023-05-03T03:46:54.465Z,3.70
2023-05-03T03:48:16.609Z,3.27
2023-05-03T03:49:38.752Z,2.97
2023-05-03T03:51:00.807Z,3.80
2023-05-03T03:52:22.982Z,3.67
2023-05-03T03:53:45.040Z,3.00
2023-05-03T03:55:07.627Z,2.97
2023-05-03T03:56:29.790Z,3.50
2023-05-03T03:57:51.827Z,3.70
2023-05-03T03:59:13.837Z,3.10
2023-05-03T04:00:36.472Z,3.17
2023-05-03T04:01:58.618Z,4.50
2023-05-03T04:03:20.711Z,3.10
2023-05-03T04:04:43.269Z,3.07
2023-05-03T04:06:05.498Z,3.03
2023-05-03T04:07:27.496Z,3.47
2023-05-03T04:08:49.571Z,3.40
2023-05-03T04:10:11.861Z,3.10
2023-05-03T04:11:34.123Z,2.80
2023-05-03T04:12:56.271Z,3.27
2023-05-03T04:14:18.433Z,2.37
2023-05-03T04:15:40.521Z,2.17
2023-05-03T04:17:03.084Z,2.27
2023-05-03T04:18:25.211Z,2.20
2023-05-03T04:19:47.822Z,2.30
2023-05-03T04:21:09.849Z,2.40
2023-05-03T04:22:32.577Z,2.50
2023-05-03T04:23:55.260Z,2.40
2023-05-03T04:25:18.225Z,2.70
2023-05-03T04:26:41.147Z,2.30
2023-05-03T04:28:03.825Z,2.70
2023-05-03T04:29:26.108Z,2.77
2023-05-03T04:30:48.426Z,2.67
2023-05-03T04:32:11.342Z,2.10
2023-05-03T04:33:34.048Z,2.30
2023-05-03T04:34:56.328Z,2.50
2023-05-03T04:36:19.035Z,2.23
2023-05-03T04:37:42.038Z,2.10
2023-05-03T04:39:06.242Z,3.03
2023-05-03T04:40:28.592Z,2.60
2023-05-03T04:41:50.800Z,2.37
2023-05-03T04:43:13.196Z,2.60
2023-05-03T04:44:35.844Z,2.40
2023-05-03T04:45:58.499Z,2.13
2023-05-03T04:47:23.617Z,2.63
2023-05-03T04:48:46.503Z,2.20
2023-05-03T04:50:11.126Z,2.00
2023-05-03T04:51:33.631Z,2.70
2023-05-03T04:52:55.961Z,2.07
2023-05-03T04:54:18.093Z,2.73
2023-05-03T04:55:40.287Z,3.07
2023-05-03T04:57:02.446Z,2.30
2023-05-03T04:58:24.686Z,2.60
2023-05-03T04:59:47.262Z,2.10
2023-05-03T05:01:09.450Z,2.30
2023-05-03T05:02:31.854Z,2.47
2023-05-03T05:03:54.635Z,2.30
2023-05-03T05:05:18.251Z,1.80
2023-05-03T05:06:42.675Z,2.40
2023-05-03T05:08:04.905Z,2.27
2023-05-03T05:09:28.591Z,3.00
2023-05-03T05:10:52.688Z,2.80
2023-05-03T05:12:14.905Z,2.07
2023-05-03T05:13:37.123Z,2.30
2023-05-03T05:14:59.256Z,2.00
2023-05-03T05:16:22.167Z,2.70
2023-05-03T05:17:45.015Z,2.23
2023-05-03T05:19:08.264Z,2.50
2023-05-03T05:20:30.672Z,2.60
2023-05-03T05:21:53.218Z,2.33
2023-05-03T05:23:15.283Z,2.20
2023-05-03T05:24:37.390Z,2.60
2023-05-03T05:26:00.633Z,2.80
2023-05-03T05:27:23.682Z,2.87
2023-05-03T05:28:46.145Z,2.20
2023-05-03T05:30:08.900Z,2.20
2023-05-03T05:31:31.640Z,2.37
2023-05-03T05:32:53.818Z,3.60
2023-05-03T05:34:16.001Z,2.40
2023-05-03T05:35:38.209Z,2.70
2023-05-03T05:37:00.578Z,2.20
2023-05-03T05:38:22.695Z,2.10
2023-05-03T05:39:45.528Z,2.20
2023-05-03T05:41:07.932Z,2.07
2023-05-03T05:42:30.068Z,2.50
2023-05-03T05:43:53.179Z,2.67
2023-05-03T05:45:15.348Z,2.30
2023-05-03T05:46:37.503Z,2.57
2023-05-03T05:47:59.581Z,2.90
2023-05-03T05:49:21.643Z,2.13
2023-05-03T05:50:43.708Z,3.20
2023-05-03T05:52:05.913Z,3.07
2023-05-03T05:53:28.595Z,2.83
2023-05-03T05:54:50.706Z,3.00
2023-05-03T05:56:13.141Z,2.80
2023-05-03T05:57:35.254Z,2.93
2023-05-03T05:58:57.651Z,2.40
2023-05-03T06:00:21.559Z,3.30
2023-05-03T06:01:46.092Z,2.57
2023-05-03T06:03:08.224Z,3.30
2023-05-03T06:04:30.460Z,2.80
2023-05-03T06:05:52.573Z,2.77
2023-05-03T06:07:16.488Z,2.53
2023-05-03T06:08:38.579Z,3.10
2023-05-03T06:10:00.839Z,2.87
2023-05-03T06:11:23.379Z,2.90
2023-05-03T06:12:45.793Z,3.47
2023-05-03T06:14:09.534Z,2.93
2023-05-03T06:15:31.686Z,2.97
2023-05-03T06:16:54.007Z,2.73
2023-05-03T06:18:16.405Z,3.37
2023-05-03T06:19:39.196Z,3.00
2023-05-03T06:21:01.346Z,2.73
2023-05-03T06:22:23.430Z,3.23
2023-05-03T06:23:45.469Z,3.40
2023-05-03T06:25:07.808Z,3.90
2023-05-03T06:26:29.889Z,2.97
2023-05-03T06:27:51.903Z,3.80
2023-05-03T06:29:14.110Z,2.60
2023-05-03T06:30:36.268Z,4.10
2023-05-03T06:31:58.439Z,3.23
2023-05-03T06:33:20.500Z,4.20
2023-05-03T06:34:42.549Z,3.43
2023-05-03T06:36:04.922Z,3.70
2023-05-03T06:37:27.007Z,3.27
2023-05-03T06:38:49.040Z,3.23
2023-05-03T06:40:11.496Z,3.40
2023-05-03T06:41:33.979Z,2.70
2023-05-03T06:42:56.225Z,2.90
2023-05-03T06:44:18.306Z,2.80
2023-05-03T06:45:43.086Z,3.30
2023-05-03T06:47:05.243Z,3.60
2023-05-03T06:48:27.926Z,3.53
2023-05-03T06:49:50.173Z,2.90
2023-05-03T06:51:12.219Z,2.40
2023-05-03T06:52:34.425Z,2.50
2023-05-03T06:53:58.243Z,2.57
2023-05-03T06:55:20.361Z,2.80
2023-05-03T06:56:42.405Z,2.53
2023-05-03T06:58:11.501Z,2.70
2023-05-03T06:59:33.711Z,2.50
2023-05-03T07:00:55.826Z,2.73
2023-05-03T07:02:18.747Z,2.70
2023-05-03T07:03:42.066Z,2.60
2023-05-03T07:05:04.617Z,2.60
2023-05-03T07:06:26.962Z,2.27
2023-05-03T07:07:49.147Z,2.10
2023-05-03T07:09:11.206Z,2.63
2023-05-03T07:10:33.366Z,2.50
2023-05-03T07:11:55.381Z,2.57
2023-05-03T07:13:17.405Z,3.13
2023-05-03T07:14:40.562Z,2.63
2023-05-03T07:16:03.798Z,2.70
2023-05-03T07:17:26.066Z,2.10
2023-05-03T07:18:48.801Z,2.20
2023-05-03T07:20:11.542Z,2.30
2023-05-03T07:21:34.512Z,2.27
2023-05-03T07:22:57.450Z,2.47
2023-05-03T07:24:19.600Z,2.63
2023-05-03T07:25:45.828Z,2.70
2023-05-03T07:27:08.344Z,2.40
2023-05-03T07:28:30.372Z,2.30
2023-05-03T07:29:52.560Z,2.40
2023-05-03T07:31:15.064Z,2.20
2023-05-03T07:32:37.408Z,2.83
2023-05-03T07:33:59.615Z,2.17
2023-05-03T07:35:23.201Z,2.03
2023-05-03T07:36:45.508Z,2.40
2023-05-03T07:38:07.672Z,2.17
2023-05-03T07:39:30.927Z,3.20
2023-05-03T07:40:53.256Z,2.30
2023-05-03T07:42:15.812Z,2.00
2023-05-03T07:43:37.892Z,2.00
2023-05-03T07:45:01.033Z,2.40
2023-05-03T07:46:23.447Z,2.10
2023-05-03T07:47:45.565Z,3.37
2023-05-03T07:49:07.632Z,2.60
2023-05-03T07:50:30.031Z,1.60
2023-05-03T07:51:52.058Z,2.17
2023-05-03T07:53:14.365Z,2.07
2023-05-03T07:54:36.395Z,2.13
2023-05-03T07:55:58.398Z,2.13
2023-05-03T07:57:20.548Z,2.70
2023-05-03T07:58:44.944Z,2.13
2023-05-03T08:00:10.923Z,1.53
2023-05-03T08:01:33.070Z,2.20
2023-05-03T08:02:55.226Z,1.53
2023-05-03T08:04:17.592Z,1.77
2023-05-03T08:05:39.916Z,1.63
2023-05-03T08:07:02.864Z,1.90
2023-05-03T08:08:25.051Z,1.57
2023-05-03T08:09:48.526Z,1.90
2023-05-03T08:11:11.236Z,1.73
2023-05-03T08:12:33.352Z,1.77
2023-05-03T08:13:55.475Z,2.13
2023-05-03T08:15:17.691Z,1.67
2023-05-03T08:16:40.065Z,2.50
2023-05-03T08:18:02.273Z,1.60
2023-05-03T08:19:24.385Z,1.80
2023-05-03T08:20:47.139Z,1.60
2023-05-03T08:22:11.038Z,2.03
2023-05-03T08:23:33.192Z,1.40
2023-05-03T08:24:56.470Z,1.57
2023-05-03T08:26:18.600Z,2.10
2023-05-03T08:27:40.831Z,1.57
2023-05-03T08:29:03.525Z,1.50
2023-05-03T08:30:26.692Z,1.60
2023-05-03T08:31:48.960Z,1.23
2023-05-03T08:33:11.339Z,1.20
2023-05-03T08:34:33.516Z,1.20
2023-05-03T08:35:55.713Z,1.50
2023-05-03T08:37:17.773Z,1.43
2023-05-03T08:38:41.790Z,1.87
2023-05-03T08:40:06.464Z,1.50
2023-05-03T08:41:30.979Z,1.60
2023-05-03T08:42:55.021Z,1.70
2023-05-03T08:44:24.761Z,1.80
2023-05-03T08:45:47.008Z,2.10
2023-05-03T08:47:09.225Z,1.93
2023-05-03T08:48:31.741Z,2.40
2023-05-03T08:49:53.992Z,2.10
2023-05-03T08:51:20.020Z,2.20
2023-05-03T08:52:44.267Z,1.50
2023-05-03T08:54:06.458Z,1.67
2023-05-03T08:55:28.492Z,1.97
2023-05-03T08:56:51.416Z,1.90
2023-05-03T08:58:13.757Z,2.10
2023-05-03T08:59:49.657Z,1.23
2023-05-03T09:01:11.794Z,1.83
2023-05-03T09:02:36.790Z,2.00
2023-05-03T09:03:59.018Z,1.57
2023-05-03T09:05:21.365Z,1.80
2023-05-03T09:06:43.523Z,1.30
2023-05-03T09:08:09.779Z,1.20
2023-05-03T09:09:32.350Z,1.13
2023-05-03T09:10:54.862Z,1.20
2023-05-03T09:12:35.903Z,1.20
2023-05-03T09:14:11.964Z,1.00
2023-05-03T09:15:34.800Z,1.27
2023-05-03T09:17:13.479Z,1.27
2023-05-03T09:18:35.999Z,1.30
2023-05-03T09:19:59.199Z,1.10
2023-05-03T09:21:21.301Z,1.30
2023-05-03T09:22:52.278Z,1.67
2023-05-03T09:24:21.935Z,1.10
2023-05-03T09:25:46.830Z,1.47
2023-05-03T09:27:19.883Z,1.40
2023-05-03T09:28:43.475Z,1.40
2023-05-03T09:30:19.488Z,1.57
2023-05-03T09:32:02.409Z,2.40
2023-05-03T09:33:30.724Z,1.67
2023-05-03T09:35:08.331Z,1.30
2023-05-03T09:36:46.681Z,1.00
2023-05-03T09:38:25.393Z,1.17
2023-05-03T09:39:47.438Z,0.90
2023-05-03T09:41:10.506Z,1.20
2023-05-03T09:42:32.604Z,1.03
2023-05-03T09:43:56.161Z,1.20
2023-05-03T09:45:24.456Z,1.37
2023-05-03T09:47:05.826Z,1.27
2023-05-03T09:48:28.011Z,1.63
2023-05-03T09:49:50.654Z,1.43
2023-05-03T09:51:13.044Z,1.23
2023-05-03T09:52:35.322Z,1.43
2023-05-03T09:53:58.811Z,1.77
2023-05-03T09:55:22.026Z,1.40
2023-05-03T09:56:45.207Z,1.57
2023-05-03T09:58:07.855Z,1.40
2023-05-03T09:59:30.014Z,1.23
2023-05-03T10:00:52.724Z,1.50
2023-05-03T10:02:16.332Z,1.10
2023-05-03T10:03:52.965Z,1.07
2023-05-03T10:05:16.457Z,1.30
2023-05-03T10:06:43.929Z,1.43
2023-05-03T10:08:06.439Z,1.30
2023-05-03T10:09:39.883Z,1.33
2023-05-03T10:11:04.347Z,1.00
2023-05-03T10:12:28.058Z,1.10
2023-05-03T10:13:50.448Z,1.43
2023-05-03T10:15:15.582Z,1.30
2023-05-03T10:16:40.888Z,1.43
2023-05-03T10:18:07.805Z,1.77
2023-05-03T10:19:46.121Z,1.50
2023-05-03T10:21:14.519Z,1.37
2023-05-03T10:23:04.506Z,1.37
2023-05-03T10:24:26.616Z,1.90
2023-05-03T10:26:07.228Z,1.27
2023-05-03T10:27:44.714Z,1.27
2023-05-03T10:29:17.184Z,1.10
2023-05-03T10:30:40.552Z,1.60
2023-05-03T10:32:22.232Z,1.20
2023-05-03T10:33:44.510Z,1.20
2023-05-03T10:35:13.768Z,1.30
2023-05-03T10:36:48.813Z,1.33
2023-05-03T10:38:16.077Z,1.57
2023-05-03T10:39:44.882Z,1.50
2023-05-03T10:41:07.075Z,1.37
2023-05-03T10:42:30.959Z,1.37
2023-05-03T10:43:53.006Z,1.80
2023-05-03T10:45:28.839Z,1.47
2023-05-03T10:46:51.018Z,1.50
2023-05-03T10:48:13.065Z,1.57
2023-05-03T10:49:35.201Z,1.50
2023-05-03T10:51:18.357Z,1.70
2023-05-03T10:52:40.775Z,1.57
2023-05-03T10:54:02.874Z,1.50
2023-05-03T10:55:25.081Z,1.73
2023-05-03T10:56:52.089Z,1.60
2023-05-03T10:58:16.621Z,1.57
2023-05-03T10:59:47.623Z,1.77
2023-05-03T11:01:12.273Z,1.30
2023-05-03T11:02:42.134Z,1.70
2023-05-03T11:04:29.145Z,1.97
2023-05-03T11:05:53.911Z,1.40
2023-05-03T11:07:22.600Z,1.80
2023-05-03T11:08:48.870Z,1.40
2023-05-03T11:10:20.602Z,1.40
2023-05-03T11:11:43.383Z,1.60
2023-05-03T11:13:06.053Z,1.20
2023-05-03T11:14:28.130Z,1.70
2023-05-03T11:15:50.512Z,1.30
2023-05-03T11:17:12.760Z,1.60
2023-05-03T11:18:35.124Z,1.10
2023-05-03T11:19:57.218Z,1.43
2023-05-03T11:21:19.634Z,1.33
2023-05-03T11:22:41.945Z,1.10
2023-05-03T11:24:04.095Z,1.23
2023-05-03T11:25:27.000Z,1.57
2023-05-03T11:26:49.230Z,1.57
2023-05-03T11:28:11.333Z,1.37
2023-05-03T11:29:33.343Z,1.53
2023-05-03T11:30:55.423Z,1.20
2023-05-03T11:32:18.855Z,1.10
2023-05-03T11:33:41.633Z,1.40
2023-05-03T11:35:05.641Z,1.70
2023-05-03T11:36:30.515Z,1.60
2023-05-03T11:37:53.769Z,1.77
2023-05-03T11:39:16.202Z,1.77
2023-05-03T11:40:39.842Z,1.30
2023-05-03T11:42:05.388Z,1.83
2023-05-03T11:43:28.819Z,2.00
2023-05-03T11:44:51.314Z,1.30
2023-05-03T11:46:23.043Z,1.40
2023-05-03T11:47:45.572Z,1.00
2023-05-03T11:49:08.047Z,1.23
2023-05-03T11:50:56.501Z,1.20
2023-05-03T11:52:25.894Z,1.33
2023-05-03T11:53:48.631Z,1.17
2023-05-03T11:55:11.978Z,1.17
2023-05-03T11:56:35.414Z,1.30
2023-05-03T11:57:57.499Z,0.90
2023-05-03T11:59:20.012Z,1.10
2023-05-03T12:00:47.452Z,0.90
2023-05-03T12:02:12.674Z,1.40
2023-05-03T12:03:36.139Z,1.13
2023-05-03T12:04:58.837Z,1.30
2023-05-03T12:06:22.065Z,1.30
2023-05-03T12:07:44.826Z,1.40
2023-05-03T12:09:15.394Z,1.10
2023-05-03T12:10:38.531Z,1.20
2023-05-03T12:12:06.203Z,1.10
2023-05-03T12:13:38.117Z,1.20
2023-05-03T12:15:03.558Z,1.40
2023-05-03T12:16:27.733Z,1.37
2023-05-03T12:18:00.180Z,1.30
2023-05-03T12:19:25.714Z,1.10
2023-05-03T12:21:30.173Z,1.37
2023-05-03T12:22:39.931Z,1.10
2023-05-03T12:24:04.648Z,1.60
2023-05-03T12:25:33.628Z,1.40
2023-05-03T12:26:57.818Z,1.37
2023-05-03T12:28:21.516Z,1.27
2023-05-03T12:29:46.800Z,1.00
2023-05-03T12:31:13.012Z,1.20
2023-05-03T12:32:38.736Z,1.23
2023-05-03T12:34:29.991Z,0.97
2023-05-03T12:35:46.689Z,1.17
2023-05-03T12:37:11.891Z,1.63
2023-05-03T12:38:37.493Z,1.30
2023-05-03T12:40:22.977Z,1.10
2023-05-03T12:42:06.047Z,1.50
2023-05-03T12:43:24.399Z,1.27
2023-05-03T12:44:48.268Z,1.33
2023-05-03T12:47:39.331Z,1.37
2023-05-03T12:49:07.729Z,1.10
2023-05-03T12:50:31.819Z,1.10
2023-05-03T12:52:18.718Z,1.30
2023-05-03T12:53:46.705Z,1.37
2023-05-03T12:55:11.059Z,1.10
2023-05-03T12:56:33.907Z,1.90
2023-05-03T12:58:18.041Z,1.63
2023-05-03T12:59:42.295Z,1.27
2023-05-03T13:01:37.975Z,1.00
2023-05-03T13:05:38.624Z,1.47
2023-05-03T13:07:01.518Z,1.20
2023-05-03T13:08:28.607Z,1.47
2023-05-03T13:11:22.052Z,1.00
2023-05-03T13:12:44.529Z,1.60
2023-05-03T13:14:07.465Z,1.70
2023-05-03T13:15:29.754Z,1.43
2023-05-03T13:16:51.959Z,1.30
2023-05-03T13:18:14.923Z,1.60
2023-05-03T13:19:37.780Z,1.47
2023-05-03T13:21:00.146Z,1.80
2023-05-03T13:22:22.838Z,1.38
2023-05-03T13:23:46.231Z,1.20
2023-05-03T13:25:09.975Z,1.40
2023-05-03T13:26:33.238Z,1.70
2023-05-03T13:27:59.883Z,1.10
2023-05-03T13:29:23.074Z,1.50
2023-05-03T13:30:45.234Z,1.60
2023-05-03T13:32:08.258Z,1.73
2023-05-03T13:33:30.715Z,1.53
2023-05-03T13:34:52.793Z,1.37
2023-05-03T13:36:14.948Z,1.37
2023-05-03T13:37:36.997Z,1.10
2023-05-03T13:38:59.942Z,1.23
2023-05-03T13:40:22.143Z,2.17
2023-05-03T13:41:45.348Z,1.30
2023-05-03T13:43:09.192Z,1.50
2023-05-03T13:44:31.265Z,1.13
2023-05-03T13:46:03.199Z,1.40
2023-05-03T13:47:27.026Z,1.60
2023-05-03T13:48:52.721Z,1.27
2023-05-03T13:50:15.746Z,1.20
2023-05-03T13:51:38.079Z,1.33
2023-05-03T13:53:00.354Z,1.27
2023-05-03T13:54:22.430Z,1.40
2023-05-03T13:55:44.668Z,1.47
2023-05-03T13:57:06.792Z,1.90
2023-05-03T13:58:28.966Z,1.07
2023-05-03T13:59:51.777Z,1.30
2023-05-03T14:01:15.316Z,1.00
2023-05-03T14:02:37.443Z,1.10
2023-05-03T14:03:59.608Z,1.53
2023-05-03T14:05:21.706Z,1.80
2023-05-03T14:06:43.859Z,1.50
2023-05-03T14:08:05.988Z,1.90
2023-05-03T14:09:28.566Z,1.57
2023-05-03T14:10:50.707Z,1.37
2023-05-03T14:12:12.750Z,1.60
2023-05-03T14:13:47.638Z,1.50
2023-05-03T14:15:17.412Z,1.40
2023-05-03T14:16:41.824Z,1.93
2023-05-03T14:18:05.972Z,1.90
2023-05-03T14:19:29.306Z,1.53
2023-05-03T14:20:51.526Z,1.10
2023-05-03T14:22:13.593Z,1.60
2023-05-03T14:23:35.782Z,1.93
2023-05-03T14:24:57.817Z,1.20
2023-05-03T14:26:20.441Z,1.20
2023-05-03T14:27:43.307Z,1.37
2023-05-03T14:29:05.959Z,1.40
2023-05-03T14:30:28.091Z,1.57
2023-05-03T14:31:50.203Z,1.40
2023-05-03T14:33:12.411Z,1.50
2023-05-03T14:34:34.492Z,1.77
2023-05-03T14:35:57.030Z,1.50
2023-05-03T14:37:19.244Z,1.10
2023-05-03T14:38:41.398Z,1.40
2023-05-03T14:40:05.644Z,1.53
2023-05-03T14:41:28.191Z,1.27
2023-05-03T14:42:50.266Z,1.50
2023-05-03T14:44:12.417Z,1.37
2023-05-03T14:45:35.166Z,1.20
2023-05-03T14:46:59.004Z,1.40
2023-05-03T14:48:21.281Z,1.97
2023-05-03T14:49:43.371Z,1.50
2023-05-03T14:51:05.711Z,1.40
2023-05-03T14:52:27.842Z,1.30
2023-05-03T14:53:49.904Z,2.13
2023-05-03T14:55:12.044Z,1.43
2023-05-03T14:56:34.233Z,1.23
2023-05-03T14:57:56.356Z,1.53
2023-05-03T14:59:18.526Z,1.83
2023-05-03T15:00:41.451Z,1.57
2023-05-03T15:02:04.190Z,1.60
2023-05-03T15:03:26.727Z,1.70
2023-05-03T15:04:49.044Z,1.80
2023-05-03T15:06:11.261Z,1.57
2023-05-03T15:07:34.439Z,1.60
2023-05-03T15:08:56.882Z,1.33
2023-05-03T15:10:19.039Z,1.50
2023-05-03T15:11:41.499Z,1.70
2023-05-03T15:13:03.819Z,1.30
2023-05-03T15:14:26.489Z,1.87
2023-05-03T15:15:48.777Z,2.07
2023-05-03T15:17:11.009Z,1.53
2023-05-03T15:18:33.152Z,1.60
2023-05-03T15:19:55.352Z,2.00
2023-05-03T15:21:19.669Z,1.50
2023-05-03T15:22:41.868Z,1.63
2023-05-03T15:24:04.236Z,1.20
2023-05-03T15:25:27.041Z,1.40
2023-05-03T15:26:49.301Z,1.00
2023-05-03T15:28:11.433Z,1.67
2023-05-03T15:29:35.182Z,1.60
2023-05-03T15:30:57.471Z,1.50
2023-05-03T15:32:20.291Z,1.67
2023-05-03T15:33:43.849Z,1.43
2023-05-03T15:35:06.472Z,1.47
2023-05-03T15:36:28.629Z,1.57
2023-05-03T15:37:50.823Z,1.50
2023-05-03T15:39:13.107Z,1.40
2023-05-03T15:40:35.272Z,1.60
2023-05-03T15:41:57.522Z,1.60
2023-05-03T15:43:19.929Z,1.67
2023-05-03T15:44:42.106Z,1.20
2023-05-03T15:46:05.391Z,1.20
2023-05-03T15:47:27.517Z,1.50
2023-05-03T15:48:49.560Z,1.40
2023-05-03T15:50:11.747Z,1.10
2023-05-03T15:51:33.966Z,1.47
2023-05-03T15:52:56.952Z,1.40
2023-05-03T15:54:19.102Z,1.40
2023-05-03T15:55:42.630Z,1.50
2023-05-03T15:57:04.935Z,1.60
2023-05-03T15:58:33.700Z,1.90
2023-05-03T15:59:56.010Z,1.90
2023-05-03T16:01:18.770Z,1.40
2023-05-03T16:02:41.762Z,1.43
2023-05-03T16:04:04.638Z,1.43
2023-05-03T16:05:27.355Z,1.63
2023-05-03T16:06:50.055Z,1.40
2023-05-03T16:08:12.312Z,1.40
2023-05-03T16:09:34.556Z,1.13
2023-05-03T16:10:58.241Z,1.43
2023-05-03T16:12:20.377Z,1.33
2023-05-03T16:13:43.045Z,1.73
2023-05-03T16:15:05.522Z,1.53
2023-05-03T16:16:30.352Z,1.83
2023-05-03T16:17:54.101Z,1.60
2023-05-03T16:19:16.980Z,1.00
2023-05-03T16:20:39.354Z,1.47
2023-05-03T16:22:01.492Z,1.50
2023-05-03T16:23:23.755Z,1.70
2023-05-03T16:24:46.965Z,1.63
2023-05-03T16:26:15.064Z,1.73
2023-05-03T16:27:38.208Z,1.57
2023-05-03T16:29:01.090Z,1.67
2023-05-03T16:30:23.341Z,1.80
2023-05-03T16:31:46.984Z,1.37
2023-05-03T16:33:10.447Z,1.90
2023-05-03T16:34:32.788Z,1.37
2023-05-03T16:35:54.881Z,1.50
2023-05-03T16:37:17.589Z,2.03
2023-05-03T16:38:40.382Z,1.60
2023-05-03T16:40:05.767Z,1.60
2023-05-03T16:41:28.045Z,1.43
2023-05-03T16:42:50.760Z,1.37
2023-05-03T16:44:13.708Z,1.37
2023-05-03T16:45:35.984Z,1.47
2023-05-03T16:46:58.097Z,1.43
2023-05-03T16:48:21.981Z,1.60
2023-05-03T16:49:44.128Z,2.03
2023-05-03T16:51:06.262Z,1.80
2023-05-03T16:52:28.722Z,2.00
2023-05-03T16:53:52.087Z,1.70
2023-05-03T16:55:14.447Z,1.60
2023-05-03T16:56:37.463Z,1.40
2023-05-03T16:58:00.004Z,1.40
2023-05-03T16:59:22.188Z,1.50
2023-05-03T17:00:44.979Z,1.70
2023-05-03T17:02:07.064Z,2.10
2023-05-03T17:03:29.350Z,1.40
2023-05-03T17:04:52.892Z,1.43
2023-05-03T17:06:16.080Z,1.83
2023-05-03T17:07:38.306Z,2.10
2023-05-03T17:09:00.481Z,1.73
2023-05-03T17:10:22.703Z,1.90
2023-05-03T17:11:44.856Z,1.60
2023-05-03T17:13:09.397Z,1.57
2023-05-03T17:14:31.605Z,1.90
2023-05-03T17:15:54.410Z,1.50
2023-05-03T17:17:16.505Z,2.20
2023-05-03T17:18:40.329Z,1.40
2023-05-03T17:20:02.735Z,2.33
2023-05-03T17:21:25.180Z,1.60
2023-05-03T17:22:47.407Z,1.77
2023-05-03T17:24:09.636Z,2.50
2023-05-03T17:25:31.891Z,2.07
2023-05-03T17:26:55.307Z,1.83
2023-05-03T17:28:17.374Z,1.57
2023-05-03T17:29:39.642Z,1.30
2023-05-03T17:31:02.636Z,1.43
2023-05-03T17:32:24.953Z,1.90
2023-05-03T17:33:47.240Z,1.80
2023-05-03T17:35:11.400Z,2.47
2023-05-03T17:36:33.893Z,1.70
2023-05-03T17:37:57.093Z,1.67
2023-05-03T17:39:19.204Z,2.10
2023-05-03T17:40:43.240Z,1.95
2023-05-03T17:42:06.475Z,1.50
2023-05-03T17:43:28.718Z,2.00
2023-05-03T17:44:54.936Z,1.53
2023-05-03T17:46:17.798Z,1.57
2023-05-03T17:48:59.482Z,1.90
2023-05-03T17:50:21.535Z,1.90
2023-05-03T17:51:43.754Z,1.33
2023-05-03T17:53:05.942Z,1.70
2023-05-03T17:54:31.251Z,1.60
2023-05-03T17:55:53.775Z,1.30
2023-05-03T17:57:15.885Z,2.07
2023-05-03T17:58:38.036Z,1.60
2023-05-03T18:00:00.265Z,1.27
2023-05-03T18:01:22.365Z,1.57
2023-05-03T18:02:44.938Z,1.37
2023-05-03T18:04:07.114Z,1.50
2023-05-03T18:05:33.930Z,1.60
2023-05-03T18:06:56.435Z,1.70
2023-05-03T18:08:18.508Z,1.50
2023-05-03T18:09:40.570Z,1.77
2023-05-03T18:11:02.820Z,1.80
2023-05-03T18:12:25.722Z,1.30
2023-05-03T18:13:47.841Z,1.30
2023-05-03T18:15:10.677Z,1.60
2023-05-03T18:16:33.099Z,1.33
2023-05-03T18:17:55.229Z,1.57
2023-05-03T18:19:17.322Z,1.60
2023-05-03T18:20:39.461Z,1.57
2023-05-03T18:22:01.523Z,2.10
2023-05-03T18:23:23.651Z,1.57
2023-05-03T18:24:45.821Z,1.83
2023-05-03T18:26:08.377Z,1.57
2023-05-03T18:27:30.579Z,1.70
2023-05-03T18:28:53.728Z,1.50
2023-05-03T18:30:15.991Z,2.00
2023-05-03T18:31:38.197Z,1.93
2023-05-03T18:33:00.392Z,2.23
2023-05-03T18:34:22.776Z,2.87
2023-05-03T18:35:51.922Z,1.53
2023-05-03T18:37:14.056Z,1.70
2023-05-03T18:38:36.206Z,1.80
2023-05-03T18:39:58.200Z,2.10
2023-05-03T18:41:20.303Z,1.73
2023-05-03T18:42:42.352Z,2.23
2023-05-03T18:44:04.741Z,2.00